Time;durP1;ratioP1;P1;durP2;ratioP2;P2;SDS_P1;SDS_P2;PMS_P1;PMS_P2;Temp;Humidity;BMP_temperature;BMP_pressure;BME280_temperature;BME280_humidity;BME280_pressure;Samples;Min_cycle;Max_cycle;Signal;HPM_P1;HPM_P2
2021/01/07 00:02:02;;;;;;;;;19.50;18.00;;;;;13.27;59.32;97679.34;5973775;22;103699;-84
2021/01/07 00:04:28;;;;;;;;;21.75;19.75;;;;;13.23;59.99;97673.56;6000149;22;102843;-84
2021/01/07 00:06:55;;;;;;;;;21.50;18.25;;;;;13.21;59.43;97681.13;5980946;22;102520;-82
2021/01/07 00:09:22;;;;;;;;;21.50;20.25;;;;;13.24;59.02;97675.19;5963302;22;102784;-85
2021/01/07 00:11:51;;;;;;;;;24.50;20.75;;;;;13.21;59.43;97669.44;5938254;22;104071;-84
2021/01/07 00:14:19;;;;;;;;;24.75;21.00;;;;;13.20;58.79;97670.47;5941035;22;102885;-85
2021/01/07 00:16:45;;;;;;;;;27.50;23.00;;;;;13.18;58.88;97667.19;6004509;22;102441;-85
2021/01/07 00:19:12;;;;;;;;;23.50;20.50;;;;;13.21;59.21;97677.56;5956865;22;102578;-85
2021/01/07 00:21:40;;;;;;;;;22.75;20.00;;;;;13.16;59.89;97678.28;6001369;22;105640;-84
2021/01/07 00:24:07;;;;;;;;;20.00;19.75;;;;;13.18;59.35;97669.91;5994176;22;102897;-84
2021/01/07 00:26:34;;;;;;;;;23.25;20.00;;;;;13.17;58.99;97679.94;5978556;22;102816;-85
2021/01/07 00:29:01;;;;;;;;;21.25;19.75;;;;;13.17;59.04;97679.13;5954785;22;102751;-84
2021/01/07 00:31:28;;;;;;;;;25.00;20.25;;;;;13.15;58.85;97679.34;5979755;22;104280;-84
2021/01/07 00:33:55;;;;;;;;;22.50;19.75;;;;;13.13;58.72;97673.34;5982288;22;103967;-83
2021/01/07 00:36:22;;;;;;;;;23.50;17.75;;;;;13.11;59.24;97672.75;5984766;22;102865;-85
2021/01/07 00:38:49;;;;;;;;;23.25;20.25;;;;;13.10;58.90;97684.66;6000352;22;102783;-85
2021/01/07 00:41:17;;;;;;;;;20.25;18.75;;;;;13.14;59.33;97682.31;5981597;22;104300;-84
2021/01/07 00:43:45;;;;;;;;;18.75;17.00;;;;;13.09;59.67;97680.28;5980148;22;102494;-84
2021/01/07 00:46:12;;;;;;;;;21.50;17.25;;;;;13.09;59.33;97693.88;5976847;22;102970;-84
2021/01/07 00:48:39;;;;;;;;;24.50;20.00;;;;;13.08;58.53;97678.63;6008018;22;102754;-84
2021/01/07 00:51:07;;;;;;;;;24.75;20.50;;;;;13.09;59.51;97688.44;6005310;22;103797;-85
2021/01/07 00:53:34;;;;;;;;;24.75;20.50;;;;;13.10;58.76;97690.09;5971228;22;102824;-84
2021/01/07 00:56:01;;;;;;;;;19.75;19.00;;;;;13.09;59.48;97691.16;5952109;22;102770;-84
2021/01/07 00:58:28;;;;;;;;;22.50;18.25;;;;;13.08;59.00;97686.78;5979025;22;102908;-84
2021/01/07 01:00:55;;;;;;;;;21.50;19.75;;;;;13.08;58.90;97697.63;5972648;22;103533;-83
2021/01/07 01:03:22;;;;;;;;;21.00;18.50;;;;;13.06;59.22;97693.53;5979109;22;102548;-84
2021/01/07 01:05:49;;;;;;;;;20.25;18.75;;;;;13.00;59.50;97684.44;6044660;22;102497;-84
2021/01/07 01:08:17;;;;;;;;;22.50;19.75;;;;;13.03;58.67;97691.25;5968013;22;104447;-84
2021/01/07 01:10:44;;;;;;;;;21.75;18.50;;;;;12.98;59.44;97694.69;5963892;22;103529;-85
2021/01/07 01:13:11;;;;;;;;;21.00;18.25;;;;;12.96;58.92;97688.69;5968744;22;102833;-84
2021/01/07 01:15:38;;;;;;;;;20.50;17.00;;;;;12.98;59.21;97697.41;6067035;22;102570;-84
2021/01/07 01:18:05;;;;;;;;;19.00;18.00;;;;;12.95;59.29;97704.16;5945790;22;102846;-84
2021/01/07 01:20:32;;;;;;;;;16.75;13.75;;;;;12.97;59.57;97696.56;6095724;22;104454;-84
2021/01/07 01:22:59;;;;;;;;;19.00;18.00;;;;;12.96;59.44;97692.25;6095062;22;102945;-84
2021/01/07 01:25:26;;;;;;;;;19.00;16.50;;;;;12.93;58.85;97692.69;5952257;22;102811;-84
2021/01/07 01:27:53;;;;;;;;;17.50;14.25;;;;;12.96;58.46;97699.56;6070533;22;102843;-84
2021/01/07 01:30:20;;;;;;;;;21.25;19.00;;;;;12.93;59.13;97700.00;5969211;22;103646;-84
2021/01/07 01:32:47;;;;;;;;;19.00;17.50;;;;;12.93;58.70;97700.84;5972957;22;102707;-84
2021/01/07 01:35:14;;;;;;;;;13.75;13.25;;;;;12.91;59.26;97696.72;5969354;22;102742;-84
2021/01/07 01:37:41;;;;;;;;;22.75;18.00;;;;;12.88;58.66;97703.44;5974658;22;102727;-84
2021/01/07 01:40:09;;;;;;;;;23.00;18.50;;;;;12.87;59.60;97701.81;6099937;22;103712;-84
2021/01/07 01:42:36;;;;;;;;;20.75;16.75;;;;;12.84;58.68;97696.84;6098117;22;102606;-84
2021/01/07 01:45:03;;;;;;;;;19.50;16.75;;;;;12.87;58.50;97709.13;5971195;22;102830;-84
2021/01/07 01:47:30;;;;;;;;;20.00;18.25;;;;;12.83;59.10;97691.66;5977875;22;102811;-84
2021/01/07 01:49:57;;;;;;;;;19.00;16.50;;;;;12.81;59.27;97691.91;6099023;22;103880;-83
2021/01/07 01:52:24;;;;;;;;;19.75;17.00;;;;;12.83;59.17;97699.81;5992614;22;102574;-84
2021/01/07 01:54:51;;;;;;;;;17.25;16.00;;;;;12.78;59.15;97695.09;5979643;22;102560;-84
2021/01/07 01:57:19;;;;;;;;;17.50;16.50;;;;;12.82;58.59;97692.72;5978488;22;102816;-84
2021/01/07 01:59:46;;;;;;;;;14.00;13.50;;;;;12.76;58.66;97683.63;5998223;22;104803;-84
2021/01/07 02:02:14;;;;;;;;;20.00;17.00;;;;;12.77;58.60;97693.44;5996266;22;102481;-84
2021/01/07 02:04:41;;;;;;;;;19.50;14.50;;;;;12.74;59.22;97690.38;5955157;22;102609;-84
2021/01/07 02:07:09;;;;;;;;;17.75;13.00;;;;;12.76;59.38;97693.66;5973444;22;104200;-84
2021/01/07 02:09:36;;;;;;;;;14.75;13.25;;;;;12.74;59.04;97693.09;5957862;22;105187;-84
2021/01/07 02:12:03;;;;;;;;;14.50;12.25;;;;;12.71;58.83;97690.81;5971971;22;102895;-84
2021/01/07 02:14:30;;;;;;;;;18.25;16.50;;;;;12.69;59.36;97693.78;5974988;22;102547;-84
2021/01/07 02:16:57;;;;;;;;;18.00;15.75;;;;;12.69;59.30;97684.84;5978508;22;102713;-84
2021/01/07 02:19:24;;;;;;;;;14.25;12.50;;;;;12.68;59.10;97681.28;5973697;22;110189;-84
2021/01/07 02:21:51;;;;;;;;;17.25;13.75;;;;;12.69;59.53;97688.38;5978449;22;102810;-84
2021/01/07 02:24:18;;;;;;;;;15.50;14.50;;;;;12.64;58.93;97673.88;5997717;22;102647;-84
2021/01/07 02:26:45;;;;;;;;;18.00;16.50;;;;;12.62;59.03;97675.97;6000305;22;102796;-84
2021/01/07 02:29:12;;;;;;;;;19.50;16.00;;;;;12.61;59.46;97675.16;5971487;22;103808;-84
2021/01/07 02:31:39;;;;;;;;;19.50;16.50;;;;;12.60;59.53;97676.22;5996006;22;102929;-84
2021/01/07 02:34:06;;;;;;;;;22.50;15.00;;;;;12.57;59.07;97673.16;5994571;22;102648;-84
2021/01/07 02:36:33;;;;;;;;;13.00;12.00;;;;;12.59;59.12;97671.03;5999626;22;102962;-84
2021/01/07 02:39:00;;;;;;;;;19.50;13.75;;;;;12.56;59.07;97671.50;5974132;22;103879;-84
2021/01/07 02:41:27;;;;;;;;;18.50;15.50;;;;;12.55;59.28;97670.69;5977563;22;102603;-84
2021/01/07 02:43:54;;;;;;;;;15.00;14.00;;;;;12.53;59.29;97670.09;6001167;22;102801;-84
2021/01/07 02:46:21;;;;;;;;;14.50;11.75;;;;;12.55;59.59;97675.28;5973859;22;102798;-84
2021/01/07 02:48:48;;;;;;;;;12.00;9.25;;;;;12.51;59.44;97672.22;5952472;22;104361;-84
2021/01/07 02:51:15;;;;;;;;;17.25;14.25;;;;;12.51;59.39;97672.22;5979611;22;102597;-84
2021/01/07 02:53:42;;;;;;;;;14.75;14.50;;;;;12.49;59.01;97675.16;5972026;22;102605;-84
2021/01/07 02:56:08;;;;;;;;;16.75;15.50;;;;;12.48;59.41;97678.94;5996958;22;102834;-84
2021/01/07 02:58:37;;;;;;;;;18.00;16.25;;;;;12.45;59.59;97673.97;5999990;22;105127;-84
2021/01/07 03:01:04;;;;;;;;;15.00;15.00;;;;;12.46;58.89;97672.09;5993295;22;102591;-84
2021/01/07 03:03:31;;;;;;;;;15.50;14.75;;;;;12.43;59.29;97673.38;5976025;22;102654;-84
2021/01/07 03:05:58;;;;;;;;;18.25;16.75;;;;;12.41;59.67;97666.56;6003425;22;104355;-84
2021/01/07 03:08:24;;;;;;;;;12.00;12.00;;;;;12.41;59.78;97669.28;5998191;22;108206;-84
2021/01/07 03:10:51;;;;;;;;;16.00;12.00;;;;;12.37;59.33;97663.50;5995441;22;102605;-84
2021/01/07 03:13:18;;;;;;;;;18.00;15.50;;;;;12.40;59.63;97679.28;5998191;22;102911;-84
2021/01/07 03:15:44;;;;;;;;;16.00;14.50;;;;;12.42;59.26;97673.63;5994725;22;102823;-84
2021/01/07 03:18:11;;;;;;;;;16.00;15.00;;;;;12.39;59.16;97672.19;5955341;22;103716;-84
2021/01/07 03:20:38;;;;;;;;;16.00;15.00;;;;;12.36;59.68;97671.84;6004523;22;104189;-84
2021/01/07 03:23:05;;;;;;;;;18.00;15.75;;;;;12.37;59.50;97668.09;5992259;22;102772;-84
2021/01/07 03:25:32;;;;;;;;;14.00;13.25;;;;;12.35;59.82;97671.03;5951247;22;102845;-84
2021/01/07 03:27:58;;;;;;;;;14.00;11.00;;;;;12.34;59.41;97677.50;5978807;22;103635;-80
2021/01/07 03:30:25;;;;;;;;;15.50;14.00;;;;;12.34;59.27;97673.97;6003771;22;102540;-84
2021/01/07 03:32:52;;;;;;;;;14.25;14.25;;;;;12.33;59.43;97675.03;6001223;22;102527;-84
2021/01/07 03:35:19;;;;;;;;;15.50;14.50;;;;;12.29;59.28;97671.94;5999670;22;105291;-84
2021/01/07 03:37:45;;;;;;;;;19.75;15.75;;;;;12.32;60.19;97687.78;5976023;22;103099;-84
2021/01/07 03:40:12;;;;;;;;;17.00;15.00;;;;;12.32;59.24;97671.50;5973473;22;102869;-84
2021/01/07 03:42:39;;;;;;;;;16.50;13.75;;;;;12.31;59.58;97675.28;5999476;22;102740;-84
2021/01/07 03:45:06;;;;;;;;;19.50;15.00;;;;;12.27;59.51;97668.66;5979239;22;102696;-84
2021/01/07 03:47:33;;;;;;;;;9.00;9.00;;;;;12.29;59.63;97674.66;5970668;22;103866;-84
2021/01/07 03:50:00;;;;;;;;;14.75;12.00;;;;;12.26;59.73;97672.44;5976899;22;102845;-84
2021/01/07 03:52:27;;;;;;;;;17.00;16.00;;;;;12.25;59.31;97669.94;6005499;22;102793;-84
2021/01/07 03:54:54;;;;;;;;;17.25;13.00;;;;;12.24;59.92;97677.28;6004905;22;102928;-84
2021/01/07 03:57:20;;;;;;;;;15.25;12.00;;;;;12.27;59.58;97684.94;6003458;22;104119;-84
2021/01/07 03:59:47;;;;;;;;;15.00;14.25;;;;;12.28;59.82;97674.91;5974651;22;102678;-84
2021/01/07 04:02:14;;;;;;;;;19.50;14.00;;;;;12.26;59.72;97672.44;5999691;22;104296;-84
2021/01/07 04:04:41;;;;;;;;;12.00;10.25;;;;;12.24;60.03;97663.72;5997982;22;102855;-84
2021/01/07 04:07:07;;;;;;;;;14.25;13.00;;;;;12.21;59.96;97671.47;5998587;22;103996;-84
2021/01/07 04:09:34;;;;;;;;;15.25;12.25;;;;;12.24;59.60;97668.31;5990657;22;102558;-84
2021/01/07 04:12:01;;;;;;;;;14.00;13.50;;;;;12.21;59.56;97675.03;5996423;22;102598;-84
2021/01/07 04:14:28;;;;;;;;;17.50;13.50;;;;;12.20;60.05;97686.13;5982126;22;102706;-84
2021/01/07 04:16:55;;;;;;;;;18.00;14.50;;;;;12.20;59.83;97665.25;5963312;22;110544;-84
2021/01/07 04:19:21;;;;;;;;;13.75;12.75;;;;;12.21;59.75;97680.44;6006223;22;102607;-84
2021/01/07 04:21:48;;;;;;;;;16.75;12.00;;;;;12.21;59.63;97676.91;6008410;22;102811;-84
2021/01/07 04:24:15;;;;;;;;;15.50;12.50;;;;;12.20;59.36;97672.56;5980313;22;102852;-84
2021/01/07 04:26:42;;;;;;;;;15.25;12.50;;;;;12.17;58.93;97670.28;5985901;22;103911;-84
2021/01/07 04:29:09;;;;;;;;;12.00;11.25;;;;;12.21;59.66;97685.84;5980153;22;103799;-84
2021/01/07 04:31:36;;;;;;;;;15.75;12.75;;;;;12.20;59.52;97684.22;5979531;22;102845;-84
2021/01/07 04:34:03;;;;;;;;;14.75;12.50;;;;;12.15;59.03;97673.25;5952451;22;102898;-84
2021/01/07 04:36:29;;;;;;;;;15.50;11.25;;;;;12.16;59.35;97676.81;5977451;22;105888;-83
2021/01/07 04:38:56;;;;;;;;;15.25;12.25;;;;;12.16;59.43;97680.31;6007339;22;102957;-84
2021/01/07 04:41:23;;;;;;;;;10.75;9.00;;;;;12.17;59.11;97683.84;6004007;22;102648;-84
2021/01/07 04:43:59;;;;;;;;;13.75;11.00;;;;;12.16;59.24;97684.94;6006998;22;102868;-84
2021/01/07 04:46:26;;;;;;;;;10.25;10.00;;;;;12.13;59.40;97679.97;6004171;22;110550;-84
2021/01/07 04:48:53;;;;;;;;;14.25;12.00;;;;;12.13;59.60;97678.06;6007411;22;102807;-84
2021/01/07 04:51:20;;;;;;;;;14.25;12.00;;;;;12.12;59.48;97681.84;5953879;22;102561;-84
2021/01/07 04:53:48;;;;;;;;;14.00;12.75;;;;;12.11;59.68;97680.22;6010182;22;102837;-84
2021/01/07 04:56:15;;;;;;;;;13.00;10.25;;;;;12.12;59.83;97681.84;5983669;22;104342;-84
2021/01/07 04:58:41;;;;;;;;;12.00;10.50;;;;;12.11;59.36;97677.50;6009924;22;102707;-84
2021/01/07 05:01:08;;;;;;;;;11.25;10.50;;;;;12.08;59.55;97672.53;5983266;22;102750;-84
2021/01/07 05:03:35;;;;;;;;;14.75;11.00;;;;;12.11;59.89;97680.22;6007416;22;102874;-84
2021/01/07 05:06:02;;;;;;;;;15.00;13.25;;;;;12.10;59.49;97683.97;6095176;22;103285;-84
2021/01/07 05:08:29;;;;;;;;;14.00;11.00;;;;;12.08;58.93;97678.78;5990551;22;102536;-84
2021/01/07 05:10:56;;;;;;;;;16.50;15.50;;;;;12.09;59.58;97693.16;5986423;22;102891;-84
2021/01/07 05:13:23;;;;;;;;;14.75;11.00;;;;;12.08;59.74;97692.31;5974732;22;103052;-84
2021/01/07 05:15:50;;;;;;;;;13.25;10.50;;;;;12.09;59.44;97693.16;5980154;22;103667;-84
2021/01/07 05:18:17;;;;;;;;;13.50;13.50;;;;;12.07;59.29;97690.66;5981141;22;102624;-84
2021/01/07 05:20:44;;;;;;;;;15.25;10.25;;;;;12.07;59.64;97684.41;5979110;22;102717;-84
2021/01/07 05:23:11;;;;;;;;;13.50;10.50;;;;;12.08;59.06;97689.63;5980271;22;102898;-84
2021/01/07 05:25:44;;;;;;;;;15.75;13.75;;;;;12.09;59.36;97698.56;5980474;22;104036;-84
2021/01/07 05:28:11;;;;;;;;;13.75;11.75;;;;;12.08;59.42;97696.91;5978606;22;102873;-84
2021/01/07 05:30:38;;;;;;;;;11.50;10.50;;;;;12.03;59.62;97685.94;5984362;22;102866;-84
2021/01/07 05:33:06;;;;;;;;;11.50;9.00;;;;;12.08;59.63;97697.75;5992196;22;102888;-84
2021/01/07 05:35:34;;;;;;;;;13.50;10.00;;;;;12.06;59.59;97690.91;5983465;22;105848;-84
2021/01/07 05:38:03;;;;;;;;;10.50;10.00;;;;;12.12;59.61;97697.25;6011605;22;102799;-84
2021/01/07 05:40:30;;;;;;;;;12.50;10.25;;;;;12.12;59.41;97697.25;5987493;22;102682;-83
2021/01/07 05:42:58;;;;;;;;;11.75;11.00;;;;;12.14;59.36;97701.41;5989425;22;102801;-84
2021/01/07 05:45:34;;;;;;;;;14.00;9.50;;;;;12.13;59.03;97705.19;6008599;22;108510;-84
2021/01/07 05:48:02;;;;;;;;;13.00;10.75;;;;;12.12;58.93;97703.50;6004855;22;102938;-83
2021/01/07 05:50:29;;;;;;;;;8.50;7.50;;;;;12.11;59.72;97707.31;5981205;22;102756;-84
2021/01/07 05:52:56;;;;;;;;;11.50;10.00;;;;;12.12;59.29;97700.81;5978858;22;102841;-84
2021/01/07 05:55:23;;;;;;;;;13.50;9.25;;;;;12.12;59.50;97698.09;5979692;22;104172;-84
2021/01/07 05:57:50;;;;;;;;;12.25;9.75;;;;;12.11;59.26;97699.19;5983927;22;102529;-84
2021/01/07 06:00:17;;;;;;;;;15.00;10.00;;;;;12.11;59.83;97695.63;5980555;22;103051;-84
2021/01/07 06:02:44;;;;;;;;;12.50;9.25;;;;;12.11;59.65;97704.59;5985107;22;102909;-84
2021/01/07 06:05:13;;;;;;;;;12.75;9.00;;;;;12.11;59.82;97703.78;5996639;22;104706;-84
2021/01/07 06:07:40;;;;;;;;;11.50;9.25;;;;;12.12;59.31;97702.69;5963528;22;102831;-84
2021/01/07 06:10:09;;;;;;;;;14.00;10.00;;;;;12.11;59.53;97701.88;5976203;22;102800;-84
2021/01/07 06:12:36;;;;;;;;;10.25;9.00;;;;;12.11;59.92;97711.91;5970565;22;102818;-84
2021/01/07 06:15:05;;;;;;;;;11.75;11.00;;;;;12.09;59.56;97714.81;5972983;22;104271;-84
2021/01/07 06:17:32;;;;;;;;;11.50;9.25;;;;;12.10;59.89;97715.66;5998831;22;102605;-84
2021/01/07 06:19:58;;;;;;;;;13.00;10.00;;;;;12.08;59.56;97726.72;6002354;22;102792;-84
2021/01/07 06:22:25;;;;;;;;;9.50;8.00;;;;;12.10;59.62;97719.19;5953026;22;102893;-84
2021/01/07 06:24:54;;;;;;;;;9.00;9.00;;;;;12.10;59.63;97730.03;5999007;22;104414;-84
2021/01/07 06:27:21;;;;;;;;;11.50;10.75;;;;;12.08;59.15;97726.72;6005921;22;102572;-85
2021/01/07 06:29:48;;;;;;;;;8.25;6.50;;;;;12.08;59.30;97735.69;6000717;22;107467;-84
2021/01/07 06:32:17;;;;;;;;;10.25;8.75;;;;;12.08;59.50;97740.25;5971446;22;102823;-84
2021/01/07 06:34:44;;;;;;;;;13.50;9.75;;;;;12.06;60.14;97736.97;6001338;22;103998;-84
2021/01/07 06:37:11;;;;;;;;;8.25;8.00;;;;;12.06;59.58;97737.81;5993463;22;102624;-84
2021/01/07 06:39:42;;;;;;;;;14.25;10.00;;;;;12.06;59.46;97742.41;5984377;22;104303;-84
2021/01/07 06:42:17;;;;;;;;;7.00;6.25;;;;;12.07;59.86;97744.03;5969140;22;102840;-84
2021/01/07 06:44:45;;;;;;;;;10.50;9.75;;;;;12.06;59.44;97753.25;5970025;22;102987;-84
2021/01/07 06:47:19;;;;;;;;;12.00;10.50;;;;;12.06;59.29;97753.25;5997394;22;102567;-84
2021/01/07 06:49:49;;;;;;;;;10.50;7.75;;;;;12.03;59.33;97748.25;5975497;22;102651;-84
2021/01/07 06:52:16;;;;;;;;;9.25;8.00;;;;;12.06;59.38;97753.25;5971960;22;102781;-84
2021/01/07 06:54:45;;;;;;;;;9.50;7.75;;;;;12.03;59.90;97761.81;5977693;22;104072;-84
2021/01/07 06:57:14;;;;;;;;;12.50;7.25;;;;;12.02;59.54;97763.69;5981854;22;102689;-84
2021/01/07 06:59:57;;;;;;;;;10.00;7.00;;;;;12.04;59.74;97766.19;5981414;22;102675;-84
2021/01/07 07:02:24;;;;;;;;;12.00;9.00;;;;;12.02;59.96;97760.19;6006683;22;102748;-84
2021/01/07 07:05:04;;;;;;;;;9.50;7.25;;;;;12.06;59.58;97780.34;5976164;22;103870;-84
2021/01/07 07:07:30;;;;;;;;;9.25;7.25;;;;;12.04;59.75;97774.31;6002898;22;102708;-84
2021/01/07 07:10:19;;;;;;;;;10.25;8.00;;;;;12.04;59.59;97777.84;5996214;22;102571;-84
2021/01/07 07:12:46;;;;;;;;;8.00;8.00;;;;;12.06;59.50;97783.03;5903000;22;107239;-84
2021/01/07 07:15:13;;;;;;;;;7.75;7.00;;;;;12.06;59.31;97786.59;5976378;22;103996;-77
2021/01/07 07:17:40;;;;;;;;;12.00;9.00;;;;;12.04;59.29;97787.84;5979810;22;102684;-77
2021/01/07 07:20:10;;;;;;;;;11.75;9.75;;;;;12.04;59.79;97799.53;6009830;22;102597;-76
2021/01/07 07:22:44;;;;;;;;;10.25;8.25;;;;;12.04;59.58;97798.69;6008748;22;102851;-76
2021/01/07 07:25:11;;;;;;;;;9.25;7.75;;;;;12.05;59.28;97794.94;6004827;22;103973;-77
2021/01/07 07:27:51;;;;;;;;;9.00;8.00;;;;;12.03;59.29;97797.88;5982794;22;102888;-76
2021/01/07 07:30:23;;;;;;;;;8.50;7.25;;;;;12.04;59.66;97804.94;5982725;22;102684;-77
2021/01/07 07:32:50;;;;;;;;;7.00;6.00;;;;;12.05;59.92;97805.78;6002584;22;102546;-77
2021/01/07 07:35:21;;;;;;;;;11.00;9.25;;;;;12.03;59.27;97806.00;6004079;22;104017;-76
2021/01/07 07:37:48;;;;;;;;;9.00;6.50;;;;;12.02;59.82;97815.16;5982588;22;102908;-77
2021/01/07 07:40:28;;;;;;;;;4.00;4.00;;;;;12.03;59.51;97813.28;5985495;22;102824;-77
2021/01/07 07:42:56;;;;;;;;;9.25;7.75;;;;;12.04;59.69;97823.91;6006305;22;102880;-77
2021/01/07 07:45:26;;;;;;;;;6.75;6.75;;;;;12.03;59.80;97819.53;6008857;22;104001;-84
2021/01/07 07:47:53;;;;;;;;;7.50;7.00;;;;;12.02;59.44;97839.56;5978286;22;102703;-84
2021/01/07 07:50:29;;;;;;;;;8.50;6.00;;;;;11.97;59.73;97825.06;6011309;22;104567;-84
2021/01/07 07:53:05;;;;;;;;;11.25;9.00;;;;;12.03;60.02;97834.97;5990551;22;102934;-84
2021/01/07 07:55:43;;;;;;;;;6.75;6.00;;;;;12.00;58.94;97824.59;5981920;22;108800;-84
2021/01/07 07:58:16;;;;;;;;;8.50;7.00;;;;;11.96;59.48;97834.25;5962442;22;102797;-84
2021/01/07 08:00:53;;;;;;;;;8.25;8.00;;;;;11.99;59.37;97844.59;5988206;22;102777;-84
2021/01/07 08:03:29;;;;;;;;;6.25;6.00;;;;;12.00;59.34;97840.84;6015100;22;102765;-84
2021/01/07 08:05:59;;;;;;;;;7.25;7.00;;;;;12.02;59.95;97844.16;5984439;22;104793;-84
2021/01/07 08:08:27;;;;;;;;;8.00;7.00;;;;;12.02;59.34;97849.59;6004191;22;102952;-84
2021/01/07 08:10:55;;;;;;;;;10.75;6.50;;;;;12.02;59.44;97849.59;6009830;22;102922;-84
2021/01/07 08:13:23;;;;;;;;;9.00;7.00;;;;;11.99;59.15;97840.03;5982247;22;102846;-84
2021/01/07 08:15:56;;;;;;;;;8.50;7.00;;;;;12.02;59.31;97855.00;6000704;22;103949;-84
2021/01/07 08:18:24;;;;;;;;;7.50;6.50;;;;;12.02;59.39;97857.72;5958410;22;102550;-84
2021/01/07 08:20:52;;;;;;;;;12.75;8.00;;;;;12.03;58.97;97859.34;6007213;22;104286;-84
2021/01/07 08:23:20;;;;;;;;;9.00;8.25;;;;;12.04;59.52;97861.00;6009739;22;102847;-84
2021/01/07 08:25:49;;;;;;;;;6.25;6.25;;;;;12.03;59.37;97856.63;6007000;22;104109;-84
2021/01/07 08:28:30;;;;;;;;;5.25;4.50;;;;;12.01;59.17;97861.47;6010552;22;102644;-84
2021/01/07 08:31:09;;;;;;;;;6.00;6.00;;;;;12.00;58.79;97868.78;6006093;22;102569;-84
2021/01/07 08:33:36;;;;;;;;;9.75;6.00;;;;;12.00;58.94;97867.94;6008898;22;102466;-84
2021/01/07 08:36:03;;;;;;;;;6.25;6.25;;;;;12.02;58.96;97874.78;6011048;22;108521;-84
2021/01/07 08:38:31;;;;;;;;;7.75;6.00;;;;;12.00;59.14;97862.53;5981821;22;102959;-84
2021/01/07 08:41:27;;;;;;;;;8.50;7.00;;;;;12.02;58.98;97877.47;6008070;22;102473;-84
2021/01/07 08:43:56;;;;;;;;;8.25;7.00;;;;;12.02;59.07;97882.09;5933250;22;102849;-84
2021/01/07 08:46:27;;;;;;;;;5.00;4.50;;;;;12.01;58.81;97880.44;6007639;22;104840;-84
2021/01/07 08:49:00;;;;;;;;;7.25;6.75;;;;;12.01;59.45;97880.44;6012095;22;102663;-84
2021/01/07 08:51:27;;;;;;;;;7.00;5.50;;;;;12.01;59.35;97894.81;5986433;22;102722;-84
2021/01/07 08:53:57;;;;;;;;;6.00;5.25;;;;;12.00;58.80;97890.44;6017717;22;103089;-84
2021/01/07 08:56:37;;;;;;;;;6.00;5.25;;;;;12.01;59.07;97892.13;6013256;22;103981;-84
2021/01/07 08:59:17;;;;;;;;;7.00;5.25;;;;;11.98;59.25;97891.72;5983933;22;102863;-83
2021/01/07 09:01:44;;;;;;;;;6.50;6.00;;;;;12.01;59.07;97894.00;5985258;22;102914;-84
2021/01/07 09:04:36;;;;;;;;;7.00;5.75;;;;;12.00;59.21;97898.56;5984102;22;102872;-84
2021/01/07 09:07:07;;;;;;;;;7.00;6.00;;;;;12.00;59.17;97895.03;6011826;22;109633;-84
2021/01/07 09:09:38;;;;;;;;;5.50;5.50;;;;;11.99;59.28;97901.50;5991813;22;102634;-84
2021/01/07 09:12:10;;;;;;;;;5.25;5.25;;;;;11.99;58.95;97898.78;6012452;22;102804;-84
2021/01/07 09:15:13;;;;;;;;;7.50;6.00;;;;;12.01;58.87;97897.53;6008043;22;102848;-83
2021/01/07 09:17:44;;;;;;;;;6.50;5.00;;;;;12.00;58.54;97905.88;5891386;22;108402;-84
2021/01/07 09:20:13;;;;;;;;;5.25;4.00;;;;;12.00;58.69;97901.28;6014006;22;102919;-84
2021/01/07 09:22:40;;;;;;;;;6.00;5.00;;;;;12.00;58.82;97901.28;5985689;22;102680;-84
2021/01/07 09:25:08;;;;;;;;;5.50;5.25;;;;;11.99;58.98;97906.91;5988513;22;102897;-83
2021/01/07 09:27:35;;;;;;;;;6.00;5.00;;;;;11.99;58.97;97904.22;6017636;22;104051;-84
2021/01/07 09:30:05;;;;;;;;;6.00;6.00;;;;;12.01;58.31;97912.97;6011362;22;102771;-84
2021/01/07 09:32:32;;;;;;;;;6.75;6.00;;;;;11.98;59.14;97908.81;6012139;22;102790;-84
2021/01/07 09:34:59;;;;;;;;;4.00;4.00;;;;;11.99;58.37;97917.75;6017701;22;102664;-84
2021/01/07 09:37:25;;;;;;;;;6.00;5.00;;;;;11.98;58.56;97907.97;5984227;22;105573;-83
2021/01/07 09:39:54;;;;;;;;;6.50;5.25;;;;;11.97;58.43;97906.34;6013326;22;102809;-84
2021/01/07 09:42:21;;;;;;;;;8.00;6.25;;;;;11.95;58.66;97908.44;6016017;22;102496;-84
2021/01/07 09:44:49;;;;;;;;;5.25;5.25;;;;;11.95;58.68;97900.31;5990977;22;102921;-84
2021/01/07 09:47:15;;;;;;;;;7.00;4.00;;;;;11.95;58.89;97909.25;6004844;22;104104;-84
2021/01/07 09:49:42;;;;;;;;;5.75;4.00;;;;;11.97;58.65;97906.34;5983487;22;102793;-84
2021/01/07 09:52:09;;;;;;;;;6.00;5.50;;;;;12.00;59.14;97912.13;6008246;22;102697;-83
2021/01/07 09:54:38;;;;;;;;;6.50;5.50;;;;;12.00;58.36;97905.88;5966321;22;102837;-84
2021/01/07 09:57:05;;;;;;;;;3.75;3.75;;;;;11.99;58.68;97899.63;6010121;22;109326;-84
2021/01/07 09:59:31;;;;;;;;;5.75;5.25;;;;;11.93;58.23;97894.31;6016206;22;102786;-84
2021/01/07 10:02:00;;;;;;;;;5.00;4.75;;;;;11.97;58.73;97906.34;6008623;22;102505;-84
2021/01/07 10:04:28;;;;;;;;;5.75;4.50;;;;;11.98;58.15;97891.72;6015578;22;102890;-84
2021/01/07 10:06:54;;;;;;;;;5.75;4.75;;;;;11.99;58.50;97898.78;6007192;22;103733;-84
2021/01/07 10:09:21;;;;;;;;;6.00;4.00;;;;;11.98;58.56;97897.13;6012507;22;102864;-84
2021/01/07 10:11:58;;;;;;;;;7.50;5.50;;;;;11.99;58.56;97898.78;6002811;22;102566;-84
2021/01/07 10:14:27;;;;;;;;;5.75;5.00;;;;;11.99;58.53;97904.22;5987857;22;102512;-84
2021/01/07 10:16:55;;;;;;;;;5.00;3.00;;;;;11.99;58.63;97906.91;6005161;22;103971;-84
2021/01/07 10:19:23;;;;;;;;;5.00;4.00;;;;;11.98;57.83;97897.13;6008485;22;102895;-84
2021/01/07 10:22:03;;;;;;;;;5.75;4.50;;;;;11.99;58.33;97901.50;6014991;22;102598;-84
2021/01/07 10:24:34;;;;;;;;;6.50;4.25;;;;;11.97;58.23;97899.03;6013453;22;102482;-84
2021/01/07 10:27:03;;;;;;;;;7.75;6.50;;;;;11.98;58.62;97902.56;5999583;22;104258;-84
2021/01/07 10:29:34;;;;;;;;;3.25;2.75;;;;;12.00;58.71;97897.75;5962761;22;102586;-84
2021/01/07 10:32:08;;;;;;;;;5.00;4.25;;;;;11.98;58.37;97892.53;6009485;22;102437;-84
2021/01/07 10:34:48;;;;;;;;;5.50;5.00;;;;;12.01;57.82;97894.81;5976813;22;102711;-84
2021/01/07 10:37:20;;;;;;;;;8.25;4.75;;;;;12.01;57.88;97897.53;5900349;22;108086;-84
2021/01/07 10:39:48;;;;;;;;;5.75;5.00;;;;;12.03;57.84;97906.25;5991085;22;102558;-84
2021/01/07 10:42:16;;;;;;;;;4.75;3.75;;;;;12.03;58.52;97902.69;6008492;22;102920;-84
2021/01/07 10:44:43;;;;;;;;;4.75;3.75;;;;;12.03;57.90;97908.94;5984591;22;102905;-84
2021/01/07 10:47:11;;;;;;;;;3.75;3.00;;;;;12.03;57.71;97900.81;6012327;22;104256;-84
2021/01/07 10:49:39;;;;;;;;;4.50;4.00;;;;;12.02;58.30;97904.56;6018436;22;105251;-84
2021/01/07 10:52:10;;;;;;;;;4.75;4.00;;;;;12.03;58.14;97905.41;6012751;22;102818;-84
2021/01/07 10:54:49;;;;;;;;;4.25;4.00;;;;;12.02;58.53;97912.72;6014797;22;102857;-84
2021/01/07 10:57:40;;;;;;;;;3.00;3.00;;;;;12.03;58.02;97916.25;5885136;22;108696;-84
2021/01/07 11:00:08;;;;;;;;;7.50;4.25;;;;;12.01;58.09;97904.81;6007855;22;102481;-84
2021/01/07 11:03:00;;;;;;;;;4.00;3.00;;;;;12.01;57.93;97912.97;6007085;22;102773;-84
2021/01/07 11:05:31;;;;;;;;;5.00;4.00;;;;;11.99;57.88;97909.63;5912912;22;102605;-84
2021/01/07 11:08:42;;;;;;;;;7.00;5.00;;;;;11.99;58.24;97917.75;5987548;22;104350;-84
2021/01/07 11:11:10;;;;;;;;;6.00;4.75;;;;;11.98;58.06;97919.63;5924320;22;102893;-83
2021/01/07 11:13:44;;;;;;;;;6.25;4.75;;;;;11.99;58.13;97909.63;5988187;22;102896;-84
2021/01/07 11:16:22;;;;;;;;;5.00;4.00;;;;;11.98;58.40;97908.81;6007927;22;102823;-84
2021/01/07 11:18:54;;;;;;;;;6.00;4.50;;;;;11.96;58.23;97912.81;5986953;22;104425;-84
2021/01/07 11:21:43;;;;;;;;;5.75;4.50;;;;;11.95;58.60;97903.84;5988808;22;102545;-84
2021/01/07 11:24:09;;;;;;;;;3.50;3.00;;;;;11.94;58.37;97913.03;5986304;22;102527;-83
2021/01/07 11:26:37;;;;;;;;;5.75;4.75;;;;;11.92;58.31;97903.47;6016664;22;102827;-84